sensor_id;sensor_type;location;lat;lon;timestamp;P1;durP1;ratioP1;P2;durP2;ratioP2
31282;SDS011;17915;52.540;13.604;2023-10-09T00:02:09;3.88;;;3.25;;
31282;SDS011;17915;52.540;13.604;2023-10-09T00:04:36;9.38;;;3.03;;
31282;SDS011;17915;52.540;13.604;2023-10-09T00:07:03;12.85;;;2.85;;
31282;SDS011;17915;52.540;13.604;2023-10-09T00:09:33;3.40;;;2.97;;
31282;SDS011;17915;52.540;13.604;2023-10-09T00:12:06;2.90;;;2.67;;
31282;SDS011;17915;52.540;13.604;2023-10-09T00:14:35;2.72;;;2.53;;
31282;SDS011;17915;52.540;13.604;2023-10-09T00:17:03;3.30;;;2.97;;
31282;SDS011;17915;52.540;13.604;2023-10-09T00:19:47;2.92;;;2.60;;
31282;SDS011;17915;52.540;13.604;2023-10-09T00:22:24;3.33;;;2.97;;
31282;SDS011;17915;52.540;13.604;2023-10-09T00:24:49;4.13;;;3.53;;
31282;SDS011;17915;52.540;13.604;2023-10-09T00:27:16;3.00;;;2.90;;
31282;SDS011;17915;52.540;13.604;2023-10-09T00:29:44;3.17;;;2.90;;
31282;SDS011;17915;52.540;13.604;2023-10-09T00:32:13;3.75;;;3.08;;
31282;SDS011;17915;52.540;13.604;2023-10-09T00:34:57;3.27;;;2.60;;
31282;SDS011;17915;52.540;13.604;2023-10-09T00:37:24;3.50;;;3.20;;
31282;SDS011;17915;52.540;13.604;2023-10-09T00:39:53;4.10;;;3.80;;
31282;SDS011;17915;52.540;13.604;2023-10-09T00:42:22;7.63;;;3.65;;
31282;SDS011;17915;52.540;13.604;2023-10-09T00:45:08;4.22;;;3.65;;
31282;SDS011;17915;52.540;13.604;2023-10-09T00:47:35;4.38;;;2.90;;
31282;SDS011;17915;52.540;13.604;2023-10-09T00:50:06;4.03;;;2.67;;
31282;SDS011;17915;52.540;13.604;2023-10-09T00:52:46;4.68;;;2.92;;
31282;SDS011;17915;52.540;13.604;2023-10-09T00:55:17;3.08;;;2.80;;
31282;SDS011;17915;52.540;13.604;2023-10-09T00:57:46;4.13;;;3.13;;
31282;SDS011;17915;52.540;13.604;2023-10-09T01:00:23;3.45;;;3.15;;
31282;SDS011;17915;52.540;13.604;2023-10-09T01:03:04;3.40;;;2.92;;
31282;SDS011;17915;52.540;13.604;2023-10-09T01:05:54;4.40;;;3.28;;
31282;SDS011;17915;52.540;13.604;2023-10-09T01:08:21;4.32;;;3.03;;
31282;SDS011;17915;52.540;13.604;2023-10-09T01:10:53;6.53;;;3.80;;
31282;SDS011;17915;52.540;13.604;2023-10-09T01:13:25;5.40;;;3.45;;
31282;SDS011;17915;52.540;13.604;2023-10-09T01:15:53;5.45;;;3.13;;
31282;SDS011;17915;52.540;13.604;2023-10-09T01:18:23;4.07;;;3.53;;
31282;SDS011;17915;52.540;13.604;2023-10-09T01:20:56;3.50;;;3.20;;
31282;SDS011;17915;52.540;13.604;2023-10-09T01:23:22;3.37;;;2.57;;
31282;SDS011;17915;52.540;13.604;2023-10-09T01:25:48;10.25;;;3.55;;
31282;SDS011;17915;52.540;13.604;2023-10-09T01:28:15;7.50;;;3.17;;
31282;SDS011;17915;52.540;13.604;2023-10-09T01:30:41;3.25;;;2.95;;
31282;SDS011;17915;52.540;13.604;2023-10-09T01:35:49;5.82;;;3.65;;
31282;SDS011;17915;52.540;13.604;2023-10-09T01:38:21;6.05;;;2.42;;
31282;SDS011;17915;52.540;13.604;2023-10-09T01:40:56;6.18;;;3.25;;
31282;SDS011;17915;52.540;13.604;2023-10-09T01:43:28;3.50;;;3.20;;
31282;SDS011;17915;52.540;13.604;2023-10-09T01:45:53;3.47;;;2.93;;
31282;SDS011;17915;52.540;13.604;2023-10-09T01:48:19;3.27;;;3.07;;
31282;SDS011;17915;52.540;13.604;2023-10-09T01:50:49;3.00;;;2.83;;
31282;SDS011;17915;52.540;13.604;2023-10-09T01:53:14;7.13;;;3.27;;
31282;SDS011;17915;52.540;13.604;2023-10-09T01:55:43;3.28;;;2.88;;
31282;SDS011;17915;52.540;13.604;2023-10-09T01:58:10;3.60;;;3.40;;
31282;SDS011;17915;52.540;13.604;2023-10-09T02:00:49;2.85;;;2.65;;
31282;SDS011;17915;52.540;13.604;2023-10-09T02:03:20;7.60;;;3.03;;
31282;SDS011;17915;52.540;13.604;2023-10-09T02:05:49;6.10;;;3.28;;
31282;SDS011;17915;52.540;13.604;2023-10-09T02:08:35;4.65;;;3.05;;
31282;SDS011;17915;52.540;13.604;2023-10-09T02:11:01;6.63;;;3.20;;
31282;SDS011;17915;52.540;13.604;2023-10-09T02:13:27;3.72;;;3.00;;
31282;SDS011;17915;52.540;13.604;2023-10-09T02:15:59;5.30;;;3.45;;
31282;SDS011;17915;52.540;13.604;2023-10-09T02:18:38;3.92;;;2.78;;
31282;SDS011;17915;52.540;13.604;2023-10-09T02:21:21;3.53;;;3.20;;
31282;SDS011;17915;52.540;13.604;2023-10-09T02:24:02;4.82;;;2.72;;
31282;SDS011;17915;52.540;13.604;2023-10-09T02:26:31;3.63;;;3.05;;
31282;SDS011;17915;52.540;13.604;2023-10-09T02:29:28;3.57;;;3.37;;
31282;SDS011;17915;52.540;13.604;2023-10-09T02:31:53;3.30;;;3.00;;
31282;SDS011;17915;52.540;13.604;2023-10-09T02:34:26;9.20;;;3.70;;
31282;SDS011;17915;52.540;13.604;2023-10-09T02:36:53;11.68;;;3.55;;
31282;SDS011;17915;52.540;13.604;2023-10-09T02:39:30;4.88;;;3.50;;
31282;SDS011;17915;52.540;13.604;2023-10-09T02:42:01;4.47;;;4.07;;
31282;SDS011;17915;52.540;13.604;2023-10-09T02:44:44;5.07;;;3.78;;
31282;SDS011;17915;52.540;13.604;2023-10-09T02:47:15;6.28;;;3.25;;
31282;SDS011;17915;52.540;13.604;2023-10-09T02:49:46;4.72;;;3.33;;
31282;SDS011;17915;52.540;13.604;2023-10-09T02:52:13;5.93;;;3.67;;
31282;SDS011;17915;52.540;13.604;2023-10-09T02:54:43;4.30;;;3.83;;
31282;SDS011;17915;52.540;13.604;2023-10-09T02:57:11;4.20;;;3.53;;
31282;SDS011;17915;52.540;13.604;2023-10-09T02:59:46;5.18;;;3.63;;
31282;SDS011;17915;52.540;13.604;2023-10-09T03:02:12;4.47;;;3.15;;
31282;SDS011;17915;52.540;13.604;2023-10-09T03:04:38;5.17;;;4.67;;
31282;SDS011;17915;52.540;13.604;2023-10-09T03:07:04;5.35;;;3.65;;
31282;SDS011;17915;52.540;13.604;2023-10-09T03:11:57;5.70;;;3.67;;
31282;SDS011;17915;52.540;13.604;2023-10-09T03:14:27;4.88;;;3.78;;
31282;SDS011;17915;52.540;13.604;2023-10-09T03:19:19;6.10;;;3.70;;
31282;SDS011;17915;52.540;13.604;2023-10-09T03:21:45;5.23;;;3.77;;
31282;SDS011;17915;52.540;13.604;2023-10-09T03:24:11;5.47;;;4.00;;
31282;SDS011;17915;52.540;13.604;2023-10-09T03:26:37;6.90;;;4.17;;
31282;SDS011;17915;52.540;13.604;2023-10-09T03:29:02;8.27;;;4.40;;
31282;SDS011;17915;52.540;13.604;2023-10-09T03:31:34;5.05;;;4.55;;
31282;SDS011;17915;52.540;13.604;2023-10-09T03:34:01;6.63;;;4.35;;
31282;SDS011;17915;52.540;13.604;2023-10-09T03:36:27;7.88;;;4.40;;
31282;SDS011;17915;52.540;13.604;2023-10-09T03:38:54;5.53;;;4.50;;
31282;SDS011;17915;52.540;13.604;2023-10-09T03:41:20;4.03;;;3.70;;
31282;SDS011;17915;52.540;13.604;2023-10-09T03:43:46;11.03;;;4.37;;
31282;SDS011;17915;52.540;13.604;2023-10-09T03:46:11;4.87;;;4.47;;
31282;SDS011;17915;52.540;13.604;2023-10-09T03:48:46;7.80;;;4.88;;
31282;SDS011;17915;52.540;13.604;2023-10-09T03:51:14;5.55;;;3.95;;
31282;SDS011;17915;52.540;13.604;2023-10-09T03:53:50;5.13;;;3.90;;
31282;SDS011;17915;52.540;13.604;2023-10-09T03:56:17;5.53;;;4.18;;
31282;SDS011;17915;52.540;13.604;2023-10-09T03:58:44;5.22;;;4.72;;
31282;SDS011;17915;52.540;13.604;2023-10-09T04:01:11;4.78;;;4.03;;
31282;SDS011;17915;52.540;13.604;2023-10-09T04:03:56;9.30;;;5.53;;
31282;SDS011;17915;52.540;13.604;2023-10-09T04:06:28;10.05;;;4.95;;
31282;SDS011;17915;52.540;13.604;2023-10-09T04:09:01;14.35;;;5.55;;
31282;SDS011;17915;52.540;13.604;2023-10-09T04:11:47;7.55;;;5.32;;
31282;SDS011;17915;52.540;13.604;2023-10-09T04:14:42;8.13;;;4.80;;
31282;SDS011;17915;52.540;13.604;2023-10-09T04:17:20;8.80;;;4.80;;
31282;SDS011;17915;52.540;13.604;2023-10-09T04:19:54;5.47;;;4.85;;
31282;SDS011;17915;52.540;13.604;2023-10-09T04:22:39;5.30;;;4.90;;
31282;SDS011;17915;52.540;13.604;2023-10-09T04:25:16;12.03;;;5.07;;
31282;SDS011;17915;52.540;13.604;2023-10-09T04:27:54;5.72;;;4.82;;
31282;SDS011;17915;52.540;13.604;2023-10-09T04:30:33;8.23;;;5.03;;
31282;SDS011;17915;52.540;13.604;2023-10-09T04:33:05;6.60;;;5.03;;
31282;SDS011;17915;52.540;13.604;2023-10-09T04:35:37;7.03;;;6.43;;
31282;SDS011;17915;52.540;13.604;2023-10-09T04:38:03;8.52;;;6.10;;
31282;SDS011;17915;52.540;13.604;2023-10-09T04:40:30;7.75;;;6.35;;
31282;SDS011;17915;52.540;13.604;2023-10-09T04:43:04;12.95;;;6.55;;
31282;SDS011;17915;52.540;13.604;2023-10-09T04:45:37;12.45;;;5.82;;
31282;SDS011;17915;52.540;13.604;2023-10-09T04:48:09;6.30;;;5.75;;
31282;SDS011;17915;52.540;13.604;2023-10-09T04:53:01;19.20;;;10.63;;
31282;SDS011;17915;52.540;13.604;2023-10-09T04:55:47;8.85;;;6.55;;
31282;SDS011;17915;52.540;13.604;2023-10-09T04:58:25;8.25;;;5.85;;
31282;SDS011;17915;52.540;13.604;2023-10-09T05:00:54;8.07;;;6.10;;
31282;SDS011;17915;52.540;13.604;2023-10-09T05:03:22;8.90;;;6.50;;
31282;SDS011;17915;52.540;13.604;2023-10-09T05:05:53;7.03;;;6.32;;
31282;SDS011;17915;52.540;13.604;2023-10-09T05:08:27;7.03;;;6.15;;
31282;SDS011;17915;52.540;13.604;2023-10-09T05:11:02;10.80;;;6.30;;
31282;SDS011;17915;52.540;13.604;2023-10-09T05:13:35;6.43;;;5.93;;
31282;SDS011;17915;52.540;13.604;2023-10-09T05:16:21;6.60;;;5.72;;
31282;SDS011;17915;52.540;13.604;2023-10-09T05:18:55;13.70;;;6.22;;
31282;SDS011;17915;52.540;13.604;2023-10-09T05:21:34;7.10;;;5.95;;
31282;SDS011;17915;52.540;13.604;2023-10-09T05:24:02;13.10;;;6.65;;
31282;SDS011;17915;52.540;13.604;2023-10-09T05:26:47;8.30;;;6.22;;
31282;SDS011;17915;52.540;13.604;2023-10-09T05:29:17;8.10;;;7.00;;
31282;SDS011;17915;52.540;13.604;2023-10-09T05:32:10;6.55;;;5.95;;
31282;SDS011;17915;52.540;13.604;2023-10-09T05:34:53;8.27;;;5.82;;
31282;SDS011;17915;52.540;13.604;2023-10-09T05:37:25;6.97;;;6.28;;
31282;SDS011;17915;52.540;13.604;2023-10-09T05:39:53;8.07;;;7.15;;
31282;SDS011;17915;52.540;13.604;2023-10-09T05:42:26;11.35;;;7.82;;
31282;SDS011;17915;52.540;13.604;2023-10-09T05:45:07;7.00;;;6.40;;
31282;SDS011;17915;52.540;13.604;2023-10-09T05:47:49;9.07;;;7.35;;
31282;SDS011;17915;52.540;13.604;2023-10-09T05:50:23;11.27;;;7.38;;
31282;SDS011;17915;52.540;13.604;2023-10-09T05:52:49;10.75;;;9.68;;
31282;SDS011;17915;52.540;13.604;2023-10-09T05:55:24;11.70;;;9.32;;
31282;SDS011;17915;52.540;13.604;2023-10-09T05:57:54;10.85;;;9.30;;
31282;SDS011;17915;52.540;13.604;2023-10-09T06:00:39;15.25;;;9.85;;
31282;SDS011;17915;52.540;13.604;2023-10-09T06:03:23;12.75;;;10.65;;
31282;SDS011;17915;52.540;13.604;2023-10-09T06:05:55;13.00;;;9.60;;
31282;SDS011;17915;52.540;13.604;2023-10-09T06:08:21;11.57;;;10.30;;
31282;SDS011;17915;52.540;13.604;2023-10-09T06:10:52;10.95;;;10.05;;
31282;SDS011;17915;52.540;13.604;2023-10-09T06:13:31;14.65;;;11.43;;
31282;SDS011;17915;52.540;13.604;2023-10-09T06:16:03;13.48;;;10.82;;
31282;SDS011;17915;52.540;13.604;2023-10-09T06:18:55;10.07;;;9.18;;
31282;SDS011;17915;52.540;13.604;2023-10-09T06:21:33;11.60;;;9.93;;
31282;SDS011;17915;52.540;13.604;2023-10-09T06:24:25;15.05;;;10.23;;
31282;SDS011;17915;52.540;13.604;2023-10-09T06:27:09;21.13;;;9.45;;
31282;SDS011;17915;52.540;13.604;2023-10-09T06:29:35;14.35;;;9.23;;
31282;SDS011;17915;52.540;13.604;2023-10-09T06:32:15;11.77;;;9.82;;
31282;SDS011;17915;52.540;13.604;2023-10-09T06:34:45;13.30;;;9.45;;
31282;SDS011;17915;52.540;13.604;2023-10-09T06:37:21;8.38;;;7.53;;
31282;SDS011;17915;52.540;13.604;2023-10-09T06:39:53;8.30;;;7.40;;
31282;SDS011;17915;52.540;13.604;2023-10-09T06:42:23;14.18;;;8.98;;
31282;SDS011;17915;52.540;13.604;2023-10-09T06:45:07;11.38;;;8.95;;
31282;SDS011;17915;52.540;13.604;2023-10-09T06:47:37;9.55;;;8.55;;
31282;SDS011;17915;52.540;13.604;2023-10-09T06:50:18;9.70;;;8.32;;
31282;SDS011;17915;52.540;13.604;2023-10-09T06:52:49;11.68;;;8.10;;
31282;SDS011;17915;52.540;13.604;2023-10-09T06:55:43;9.52;;;8.57;;
31282;SDS011;17915;52.540;13.604;2023-10-09T06:58:26;11.45;;;7.97;;
31282;SDS011;17915;52.540;13.604;2023-10-09T07:03:24;9.50;;;8.23;;
31282;SDS011;17915;52.540;13.604;2023-10-09T07:06:07;12.07;;;8.45;;
31282;SDS011;17915;52.540;13.604;2023-10-09T07:08:57;15.00;;;7.40;;
31282;SDS011;17915;52.540;13.604;2023-10-09T07:11:44;8.23;;;7.28;;
31282;SDS011;17915;52.540;13.604;2023-10-09T07:16:58;11.48;;;7.80;;
31282;SDS011;17915;52.540;13.604;2023-10-09T07:19:30;9.63;;;7.82;;
31282;SDS011;17915;52.540;13.604;2023-10-09T07:21:59;13.27;;;10.43;;
31282;SDS011;17915;52.540;13.604;2023-10-09T07:24:31;10.88;;;8.15;;
31282;SDS011;17915;52.540;13.604;2023-10-09T07:27:11;10.15;;;9.13;;
31282;SDS011;17915;52.540;13.604;2023-10-09T07:29:40;8.45;;;7.75;;
31282;SDS011;17915;52.540;13.604;2023-10-09T07:32:15;8.93;;;7.35;;
31282;SDS011;17915;52.540;13.604;2023-10-09T07:34:50;8.25;;;7.45;;
31282;SDS011;17915;52.540;13.604;2023-10-09T07:39:48;9.77;;;8.80;;
31282;SDS011;17915;52.540;13.604;2023-10-09T07:42:24;8.65;;;7.70;;
31282;SDS011;17915;52.540;13.604;2023-10-09T07:45:05;8.23;;;7.53;;
31282;SDS011;17915;52.540;13.604;2023-10-09T07:47:46;9.90;;;9.02;;
31282;SDS011;17915;52.540;13.604;2023-10-09T07:50:24;14.15;;;9.50;;
31282;SDS011;17915;52.540;13.604;2023-10-09T07:52:55;12.60;;;10.52;;
31282;SDS011;17915;52.540;13.604;2023-10-09T07:55:39;11.48;;;9.75;;
31282;SDS011;17915;52.540;13.604;2023-10-09T07:58:10;10.20;;;9.30;;
31282;SDS011;17915;52.540;13.604;2023-10-09T08:00:37;13.43;;;11.10;;
31282;SDS011;17915;52.540;13.604;2023-10-09T08:03:22;11.23;;;9.98;;
31282;SDS011;17915;52.540;13.604;2023-10-09T08:05:54;11.55;;;9.18;;
31282;SDS011;17915;52.540;13.604;2023-10-09T08:11:00;13.55;;;10.10;;
31282;SDS011;17915;52.540;13.604;2023-10-09T08:13:44;11.68;;;9.13;;
31282;SDS011;17915;52.540;13.604;2023-10-09T08:16:22;13.07;;;11.38;;
31282;SDS011;17915;52.540;13.604;2023-10-09T08:19:01;15.48;;;12.27;;
31282;SDS011;17915;52.540;13.604;2023-10-09T08:21:52;15.52;;;12.15;;
31282;SDS011;17915;52.540;13.604;2023-10-09T08:24:36;16.05;;;11.57;;
31282;SDS011;17915;52.540;13.604;2023-10-09T08:27:06;14.57;;;11.82;;
31282;SDS011;17915;52.540;13.604;2023-10-09T08:29:50;14.20;;;10.70;;
31282;SDS011;17915;52.540;13.604;2023-10-09T08:32:35;11.80;;;9.98;;
31282;SDS011;17915;52.540;13.604;2023-10-09T08:35:05;11.13;;;9.73;;
31282;SDS011;17915;52.540;13.604;2023-10-09T08:37:51;16.08;;;9.20;;
31282;SDS011;17915;52.540;13.604;2023-10-09T08:40:18;12.75;;;8.13;;
31282;SDS011;17915;52.540;13.604;2023-10-09T08:42:48;9.23;;;8.32;;
31282;SDS011;17915;52.540;13.604;2023-10-09T08:45:21;8.93;;;7.97;;
31282;SDS011;17915;52.540;13.604;2023-10-09T08:47:51;8.82;;;8.13;;
31282;SDS011;17915;52.540;13.604;2023-10-09T08:50:19;10.65;;;8.38;;
31282;SDS011;17915;52.540;13.604;2023-10-09T08:52:44;9.90;;;7.93;;
31282;SDS011;17915;52.540;13.604;2023-10-09T08:55:11;8.30;;;7.57;;
31282;SDS011;17915;52.540;13.604;2023-10-09T08:57:38;8.82;;;7.93;;
31282;SDS011;17915;52.540;13.604;2023-10-09T09:00:05;9.40;;;8.52;;
31282;SDS011;17915;52.540;13.604;2023-10-09T09:02:34;13.43;;;8.90;;
31282;SDS011;17915;52.540;13.604;2023-10-09T09:07:33;8.60;;;7.65;;
31282;SDS011;17915;52.540;13.604;2023-10-09T09:10:04;8.80;;;8.00;;
31282;SDS011;17915;52.540;13.604;2023-10-09T09:12:42;15.02;;;6.40;;
31282;SDS011;17915;52.540;13.604;2023-10-09T09:15:14;14.50;;;7.13;;
31282;SDS011;17915;52.540;13.604;2023-10-09T09:17:45;11.75;;;7.82;;
31282;SDS011;17915;52.540;13.604;2023-10-09T09:20:20;7.25;;;5.88;;
31282;SDS011;17915;52.540;13.604;2023-10-09T09:22:54;6.93;;;6.15;;
31282;SDS011;17915;52.540;13.604;2023-10-09T09:25:23;5.70;;;5.20;;
31282;SDS011;17915;52.540;13.604;2023-10-09T09:27:56;6.38;;;5.82;;
31282;SDS011;17915;52.540;13.604;2023-10-09T09:30:23;6.53;;;5.93;;
31282;SDS011;17915;52.540;13.604;2023-10-09T09:32:49;6.65;;;5.18;;
31282;SDS011;17915;52.540;13.604;2023-10-09T09:35:35;10.70;;;5.45;;
31282;SDS011;17915;52.540;13.604;2023-10-09T09:38:00;6.97;;;6.37;;
31282;SDS011;17915;52.540;13.604;2023-10-09T09:40:30;7.43;;;6.07;;
31282;SDS011;17915;52.540;13.604;2023-10-09T09:42:58;12.35;;;6.22;;
31282;SDS011;17915;52.540;13.604;2023-10-09T09:48:06;6.28;;;5.22;;
31282;SDS011;17915;52.540;13.604;2023-10-09T09:50:35;7.05;;;5.40;;
31282;SDS011;17915;52.540;13.604;2023-10-09T09:53:15;6.50;;;5.90;;
31282;SDS011;17915;52.540;13.604;2023-10-09T09:55:45;12.13;;;5.80;;
31282;SDS011;17915;52.540;13.604;2023-10-09T09:58:17;5.68;;;4.93;;
31282;SDS011;17915;52.540;13.604;2023-10-09T10:00:48;13.77;;;9.27;;
31282;SDS011;17915;52.540;13.604;2023-10-09T10:05:58;8.75;;;5.05;;
31282;SDS011;17915;52.540;13.604;2023-10-09T10:08:26;5.20;;;4.80;;
31282;SDS011;17915;52.540;13.604;2023-10-09T10:10:58;10.63;;;5.38;;
31282;SDS011;17915;52.540;13.604;2023-10-09T10:16:16;5.68;;;5.00;;
31282;SDS011;17915;52.540;13.604;2023-10-09T10:18:54;6.53;;;5.90;;
31282;SDS011;17915;52.540;13.604;2023-10-09T10:21:36;6.55;;;5.95;;
31282;SDS011;17915;52.540;13.604;2023-10-09T10:29:34;8.23;;;6.40;;
31282;SDS011;17915;52.540;13.604;2023-10-09T10:32:02;8.23;;;5.88;;
31282;SDS011;17915;52.540;13.604;2023-10-09T10:34:54;8.85;;;7.00;;
31282;SDS011;17915;52.540;13.604;2023-10-09T10:40:25;7.72;;;6.40;;
31282;SDS011;17915;52.540;13.604;2023-10-09T10:43:03;10.05;;;6.85;;
31282;SDS011;17915;52.540;13.604;2023-10-09T10:45:38;6.40;;;5.78;;
31282;SDS011;17915;52.540;13.604;2023-10-09T10:48:08;13.15;;;6.85;;
31282;SDS011;17915;52.540;13.604;2023-10-09T10:50:48;9.98;;;6.75;;
31282;SDS011;17915;52.540;13.604;2023-10-09T10:53:14;7.70;;;6.35;;
31282;SDS011;17915;52.540;13.604;2023-10-09T10:55:58;11.45;;;9.77;;
31282;SDS011;17915;52.540;13.604;2023-10-09T10:58:43;12.35;;;8.52;;
31282;SDS011;17915;52.540;13.604;2023-10-09T11:01:30;11.60;;;6.07;;
31282;SDS011;17915;52.540;13.604;2023-10-09T11:04:25;7.85;;;6.85;;
31282;SDS011;17915;52.540;13.604;2023-10-09T11:06:58;6.50;;;6.07;;
31282;SDS011;17915;52.540;13.604;2023-10-09T11:15:13;9.73;;;6.18;;
31282;SDS011;17915;52.540;13.604;2023-10-09T11:17:58;9.95;;;7.93;;
31282;SDS011;17915;52.540;13.604;2023-10-09T11:20:24;8.50;;;7.45;;
31282;SDS011;17915;52.540;13.604;2023-10-09T11:22:57;7.75;;;7.18;;
31282;SDS011;17915;52.540;13.604;2023-10-09T11:25:32;9.40;;;8.25;;
31282;SDS011;17915;52.540;13.604;2023-10-09T11:27:57;9.55;;;8.45;;
31282;SDS011;17915;52.540;13.604;2023-10-09T11:30:39;11.32;;;8.23;;
31282;SDS011;17915;52.540;13.604;2023-10-09T11:33:05;9.40;;;7.50;;
31282;SDS011;17915;52.540;13.604;2023-10-09T11:35:39;8.90;;;5.82;;
31282;SDS011;17915;52.540;13.604;2023-10-09T11:38:09;9.25;;;7.22;;
31282;SDS011;17915;52.540;13.604;2023-10-09T11:40:46;7.95;;;7.22;;
31282;SDS011;17915;52.540;13.604;2023-10-09T11:43:15;7.75;;;6.15;;
31282;SDS011;17915;52.540;13.604;2023-10-09T11:45:40;7.97;;;5.67;;
31282;SDS011;17915;52.540;13.604;2023-10-09T11:48:19;12.73;;;6.95;;
31282;SDS011;17915;52.540;13.604;2023-10-09T11:50:58;13.82;;;7.22;;
31282;SDS011;17915;52.540;13.604;2023-10-09T11:53:44;8.23;;;5.95;;
31282;SDS011;17915;52.540;13.604;2023-10-09T11:56:21;7.78;;;6.95;;
31282;SDS011;17915;52.540;13.604;2023-10-09T11:58:47;7.57;;;5.53;;
31282;SDS011;17915;52.540;13.604;2023-10-09T12:01:14;5.15;;;4.85;;
31282;SDS011;17915;52.540;13.604;2023-10-09T12:03:45;12.13;;;6.07;;
31282;SDS011;17915;52.540;13.604;2023-10-09T12:06:18;6.03;;;4.85;;
31282;SDS011;17915;52.540;13.604;2023-10-09T12:08:47;6.07;;;5.57;;
31282;SDS011;17915;52.540;13.604;2023-10-09T12:13:53;6.07;;;5.57;;
31282;SDS011;17915;52.540;13.604;2023-10-09T12:16:21;6.25;;;5.63;;
31282;SDS011;17915;52.540;13.604;2023-10-09T12:18:47;9.00;;;6.55;;
31282;SDS011;17915;52.540;13.604;2023-10-09T12:21:18;8.48;;;6.50;;
31282;SDS011;17915;52.540;13.604;2023-10-09T12:23:44;7.78;;;6.53;;
31282;SDS011;17915;52.540;13.604;2023-10-09T12:26:12;6.40;;;5.90;;
31282;SDS011;17915;52.540;13.604;2023-10-09T12:28:39;7.10;;;5.97;;
31282;SDS011;17915;52.540;13.604;2023-10-09T12:31:05;8.52;;;6.45;;
31282;SDS011;17915;52.540;13.604;2023-10-09T12:33:31;10.23;;;6.05;;
31282;SDS011;17915;52.540;13.604;2023-10-09T12:35:57;7.07;;;6.47;;
31282;SDS011;17915;52.540;13.604;2023-10-09T12:38:25;6.85;;;6.05;;
31282;SDS011;17915;52.540;13.604;2023-10-09T12:41:03;11.63;;;6.57;;
31282;SDS011;17915;52.540;13.604;2023-10-09T12:43:49;7.88;;;5.85;;
31282;SDS011;17915;52.540;13.604;2023-10-09T12:46:17;9.15;;;7.15;;
31282;SDS011;17915;52.540;13.604;2023-10-09T12:48:43;8.85;;;6.72;;
31282;SDS011;17915;52.540;13.604;2023-10-09T12:51:12;7.32;;;6.63;;
31282;SDS011;17915;52.540;13.604;2023-10-09T12:53:41;9.20;;;7.10;;
31282;SDS011;17915;52.540;13.604;2023-10-09T12:56:07;7.47;;;6.43;;
31282;SDS011;17915;52.540;13.604;2023-10-09T12:58:34;5.70;;;5.30;;
31282;SDS011;17915;52.540;13.604;2023-10-09T13:01:02;6.45;;;5.68;;
31282;SDS011;17915;52.540;13.604;2023-10-09T13:03:34;9.20;;;6.25;;
31282;SDS011;17915;52.540;13.604;2023-10-09T13:06:03;6.18;;;5.68;;
31282;SDS011;17915;52.540;13.604;2023-10-09T13:08:32;7.28;;;6.28;;
31282;SDS011;17915;52.540;13.604;2023-10-09T13:11:05;12.50;;;6.32;;
31282;SDS011;17915;52.540;13.604;2023-10-09T13:13:38;6.68;;;5.55;;
31282;SDS011;17915;52.540;13.604;2023-10-09T13:16:21;5.57;;;4.90;;
31282;SDS011;17915;52.540;13.604;2023-10-09T13:21:17;8.45;;;5.70;;
31282;SDS011;17915;52.540;13.604;2023-10-09T13:23:44;6.75;;;5.45;;
31282;SDS011;17915;52.540;13.604;2023-10-09T13:26:12;7.88;;;7.07;;
31282;SDS011;17915;52.540;13.604;2023-10-09T13:28:46;7.85;;;7.05;;
31282;SDS011;17915;52.540;13.604;2023-10-09T13:31:12;8.15;;;7.28;;
31282;SDS011;17915;52.540;13.604;2023-10-09T13:33:39;11.20;;;7.40;;
31282;SDS011;17915;52.540;13.604;2023-10-09T13:36:05;10.50;;;7.22;;
31282;SDS011;17915;52.540;13.604;2023-10-09T13:38:40;8.20;;;7.10;;
31282;SDS011;17915;52.540;13.604;2023-10-09T13:41:08;10.77;;;7.78;;
31282;SDS011;17915;52.540;13.604;2023-10-09T13:43:38;10.25;;;7.63;;
31282;SDS011;17915;52.540;13.604;2023-10-09T13:46:06;9.13;;;7.25;;
31282;SDS011;17915;52.540;13.604;2023-10-09T13:48:33;7.80;;;6.78;;
31282;SDS011;17915;52.540;13.604;2023-10-09T13:51:03;7.38;;;6.68;;
31282;SDS011;17915;52.540;13.604;2023-10-09T13:53:33;7.45;;;6.28;;
31282;SDS011;17915;52.540;13.604;2023-10-09T13:56:10;7.47;;;6.68;;
31282;SDS011;17915;52.540;13.604;2023-10-09T13:58:45;9.00;;;7.05;;
31282;SDS011;17915;52.540;13.604;2023-10-09T14:01:12;7.75;;;7.15;;
31282;SDS011;17915;52.540;13.604;2023-10-09T14:03:45;7.55;;;6.85;;
31282;SDS011;17915;52.540;13.604;2023-10-09T14:06:15;7.93;;;7.20;;
31282;SDS011;17915;52.540;13.604;2023-10-09T14:08:44;9.32;;;8.18;;
31282;SDS011;17915;52.540;13.604;2023-10-09T14:11:10;8.23;;;7.55;;
31282;SDS011;17915;52.540;13.604;2023-10-09T14:13:39;7.85;;;7.20;;
31282;SDS011;17915;52.540;13.604;2023-10-09T14:16:05;9.25;;;7.60;;
31282;SDS011;17915;52.540;13.604;2023-10-09T14:21:00;14.48;;;8.70;;
31282;SDS011;17915;52.540;13.604;2023-10-09T14:23:29;8.90;;;7.95;;
31282;SDS011;17915;52.540;13.604;2023-10-09T14:25:57;8.20;;;7.53;;
31282;SDS011;17915;52.540;13.604;2023-10-09T14:28:26;13.77;;;12.25;;
31282;SDS011;17915;52.540;13.604;2023-10-09T14:30:54;8.27;;;7.57;;
31282;SDS011;17915;52.540;13.604;2023-10-09T14:33:24;7.97;;;7.18;;
31282;SDS011;17915;52.540;13.604;2023-10-09T14:35:53;9.25;;;7.40;;
31282;SDS011;17915;52.540;13.604;2023-10-09T14:38:19;7.82;;;7.13;;
31282;SDS011;17915;52.540;13.604;2023-10-09T14:40:51;11.18;;;7.95;;
31282;SDS011;17915;52.540;13.604;2023-10-09T14:43:22;7.90;;;7.15;;
31282;SDS011;17915;52.540;13.604;2023-10-09T14:45:53;7.03;;;6.50;;
31282;SDS011;17915;52.540;13.604;2023-10-09T14:48:19;7.20;;;6.50;;
31282;SDS011;17915;52.540;13.604;2023-10-09T14:50:51;6.85;;;6.18;;
31282;SDS011;17915;52.540;13.604;2023-10-09T14:53:20;7.07;;;6.38;;
31282;SDS011;17915;52.540;13.604;2023-10-09T14:55:53;6.53;;;5.97;;
31282;SDS011;17915;52.540;13.604;2023-10-09T14:58:19;6.18;;;5.22;;
31282;SDS011;17915;52.540;13.604;2023-10-09T15:00:44;7.57;;;6.77;;
31282;SDS011;17915;52.540;13.604;2023-10-09T15:03:13;6.75;;;6.15;;
31282;SDS011;17915;52.540;13.604;2023-10-09T15:05:40;7.22;;;6.00;;
31282;SDS011;17915;52.540;13.604;2023-10-09T15:08:07;6.53;;;5.93;;
31282;SDS011;17915;52.540;13.604;2023-10-09T15:10:36;6.60;;;6.10;;
31282;SDS011;17915;52.540;13.604;2023-10-09T15:13:14;9.20;;;6.82;;
31282;SDS011;17915;52.540;13.604;2023-10-09T15:15:43;8.93;;;7.22;;
31282;SDS011;17915;52.540;13.604;2023-10-09T15:18:09;6.00;;;5.57;;
31282;SDS011;17915;52.540;13.604;2023-10-09T15:20:38;8.43;;;7.57;;
31282;SDS011;17915;52.540;13.604;2023-10-09T15:25:30;10.48;;;7.20;;
31282;SDS011;17915;52.540;13.604;2023-10-09T15:27:55;6.93;;;6.33;;
31282;SDS011;17915;52.540;13.604;2023-10-09T15:30:22;8.30;;;7.47;;
31282;SDS011;17915;52.540;13.604;2023-10-09T15:32:48;7.57;;;6.90;;
31282;SDS011;17915;52.540;13.604;2023-10-09T15:35:14;9.65;;;7.20;;
31282;SDS011;17915;52.540;13.604;2023-10-09T15:37:40;17.08;;;8.95;;
31282;SDS011;17915;52.540;13.604;2023-10-09T15:40:08;8.73;;;7.95;;
31282;SDS011;17915;52.540;13.604;2023-10-09T15:42:41;7.57;;;7.03;;
31282;SDS011;17915;52.540;13.604;2023-10-09T15:45:08;10.77;;;8.23;;
31282;SDS011;17915;52.540;13.604;2023-10-09T15:47:34;8.07;;;7.35;;
31282;SDS011;17915;52.540;13.604;2023-10-09T15:50:01;8.77;;;7.53;;
31282;SDS011;17915;52.540;13.604;2023-10-09T15:52:33;8.77;;;7.15;;
31282;SDS011;17915;52.540;13.604;2023-10-09T15:54:59;9.30;;;8.40;;
31282;SDS011;17915;52.540;13.604;2023-10-09T15:57:25;8.55;;;7.85;;